Portada
METAR-TAF:

METAR-TAF

Aeroports :

Faith Municipal Airport

Faith, Dakota del Sud, Estats Units d'Amèrica

latitud: 45-01-55N, longitud: 102-01-09W, altitud: 787 m

Observació

L'informe es va fer fa 45 minuts, a les 22:56 UTC
Vent 12 kt del Nord-Est
Temperatura -3°C
Humitat 93%
Pressió 1004 hPa

METAR: KD07 082256Z AUTO 05012KT M03/M04 A2965 RMK AO1 SLP069 T10281044

Hora: 16:41 (23:41 UTC)


TAF: manca

Observacions i pronòstics meteorològics de més de 4000 aeroports (METAR i TAF).

Les estacions disponibles són els punts grocs i vermells al mapa.

Posi el ratolí al punt desitjat per veure el nom de l'estació.

Feu clic per veure les observacions i els pronòstics meteorològics.

Per canviar el mapa: feu clic els botons verds amb una creu de color negre per apropar; al botó verd amb un guió per allunyar la imatge; o en les fletxes verdes per a mapes adjacents.


METAR-TAF: